Time;durP1;ratioP1;P1;durP2;ratioP2;P2;SDS_P1;SDS_P2;PMS_P1;PMS_P2;Temp;Humidity;BMP_temperature;BMP_pressure;BME280_temperature;BME280_humidity;BME280_pressure;Samples;Min_cycle;Max_cycle;Signal;HPM_P1;HPM_P2
2024/04/08 01:27:34;;;;;;;7.13;1.90;;;15.20;99.90;;;;;;4997222;28;20234;-75
2024/04/08 01:30:01;;;;;;;10.05;2.35;;;15.20;99.90;;;;;;4980759;28;20209;-76
2024/04/08 01:32:28;;;;;;;5.60;1.95;;;15.20;99.90;;;;;;4998535;28;20193;-77
2024/04/08 01:34:53;;;;;;;8.75;2.20;;;15.30;99.90;;;;;;4999421;28;20649;-76
2024/04/08 01:37:20;;;;;;;11.65;2.30;;;15.30;99.90;;;;;;4998794;28;20270;-75
2024/04/08 01:39:46;;;;;;;6.78;1.95;;;15.30;99.90;;;;;;4999077;28;20309;-76
2024/04/08 01:42:13;;;;;;;5.68;1.80;;;15.30;99.90;;;;;;4999324;28;20218;-76
2024/04/08 01:44:41;;;;;;;9.52;2.15;;;15.30;99.90;;;;;;4999419;28;20225;-76
2024/04/08 01:47:08;;;;;;;7.90;2.20;;;15.30;99.90;;;;;;5000176;28;20210;-76
2024/04/08 01:49:34;;;;;;;6.40;2.10;;;15.30;99.90;;;;;;4982611;28;20605;-76
2024/04/08 01:52:01;;;;;;;5.45;1.80;;;15.30;99.90;;;;;;4981427;28;20194;-78
2024/04/08 01:54:27;;;;;;;7.72;2.10;;;15.30;99.90;;;;;;4999545;28;20222;-77
2024/04/08 01:56:54;;;;;;;6.55;2.50;;;15.20;99.90;;;;;;4999681;28;20221;-76
2024/04/08 01:59:20;;;;;;;4.93;1.85;;;15.20;99.90;;;;;;4980876;28;20218;-75
2024/04/08 02:29:28;;;;;;;5.13;2.00;;;;;;;;;;5040800;22;20245;-86
2024/04/08 02:31:54;;;;;;;5.93;2.15;;;;;;;;;;5005875;28;20209;-82
2024/04/08 02:34:21;;;;;;;5.70;1.77;;;15.10;99.90;;;;;;5023549;28;20194;-83
2024/04/08 02:36:49;;;;;;;8.07;2.05;;;15.00;99.90;;;;;;5023242;28;20281;-84
2024/04/08 02:39:16;;;;;;;5.70;2.05;;;14.80;99.90;;;;;;5023668;28;20221;-84
2024/04/08 02:41:41;;;;;;;5.68;2.10;;;14.80;99.90;;;;;;5023197;28;20205;-86
2024/04/08 02:44:08;;;;;;;8.95;2.20;;;14.70;99.90;;;;;;5023659;28;20196;-84
2024/04/08 02:46:36;;;;;;;8.75;2.33;;;14.70;99.90;;;;;;5023340;28;20193;-85
2024/04/08 02:49:03;;;;;;;7.22;2.22;;;14.50;99.90;;;;;;5022639;28;20698;-85
2024/04/08 02:51:29;;;;;;;5.78;2.10;;;14.50;99.90;;;;;;5022632;28;20657;-85
2024/04/08 02:53:56;;;;;;;5.20;1.85;;;14.30;99.90;;;;;;5010619;28;20217;-85
2024/04/08 02:56:22;;;;;;;6.35;2.15;;;14.10;99.90;;;;;;5024174;28;20217;-84
2024/04/08 02:58:49;;;;;;;7.88;2.05;;;;;;;;;;5023370;28;20264;-81
2024/04/08 03:01:16;;;;;;;7.05;2.20;;;13.90;99.90;;;;;;5006233;28;20675;-86
2024/04/08 03:03:45;;;;;;;6.50;1.95;;;13.90;99.90;;;;;;5023850;28;20181;-83
2024/04/08 03:06:12;;;;;;;7.78;2.22;;;13.90;99.90;;;;;;5023502;28;20212;-84
2024/04/08 03:08:40;;;;;;;7.25;2.08;;;13.90;99.90;;;;;;5022313;28;20199;-84
2024/04/08 03:11:06;;;;;;;8.13;2.00;;;;;;;;;;5022079;28;20190;-85
2024/04/08 03:13:33;;;;;;;8.02;2.20;;;13.70;99.90;;;;;;5020806;28;20228;-85
2024/04/08 03:15:59;;;;;;;7.32;2.08;;;13.60;99.90;;;;;;5021798;28;20656;-84
2024/04/08 03:18:26;;;;;;;5.32;1.88;;;13.40;99.90;;;;;;5021793;28;20304;-82
2024/04/08 03:20:57;;;;;;;4.82;1.92;;;13.30;99.90;;;;;;5022719;28;20269;-83
2024/04/08 03:23:25;;;;;;;6.80;2.13;;;13.20;99.90;;;;;;5022191;28;20353;-85
2024/04/08 03:25:57;;;;;;;7.07;2.10;;;13.00;99.90;;;;;;5004836;28;20193;-84
2024/04/08 03:28:24;;;;;;;9.35;2.05;;;13.10;99.90;;;;;;5008767;28;20193;-83
2024/04/08 03:30:50;;;;;;;4.75;1.73;;;13.10;99.90;;;;;;5037042;28;20273;-84
2024/04/08 03:33:17;;;;;;;7.03;2.30;;;;;;;;;;5037421;28;20182;-84
2024/04/08 03:35:44;;;;;;;5.30;2.30;;;;;;;;;;5037266;28;20200;-83
2024/04/08 03:38:12;;;;;;;6.03;1.80;;;12.90;99.90;;;;;;5011987;28;20196;-84
2024/04/08 03:40:39;;;;;;;6.25;1.92;;;12.80;99.90;;;;;;5031777;28;20236;-83
2024/04/08 03:43:06;;;;;;;7.82;2.05;;;12.70;99.90;;;;;;5025270;28;20193;-85
2024/04/08 03:45:33;;;;;;;4.38;2.08;;;12.70;99.90;;;;;;5023457;28;20208;-84
2024/04/08 03:48:00;;;;;;;7.63;2.10;;;12.50;99.90;;;;;;5026824;28;20182;-83
2024/04/08 03:50:27;;;;;;;7.50;2.23;;;12.40;99.90;;;;;;5029655;28;20235;-85
2024/04/08 03:52:54;;;;;;;6.87;2.10;;;12.40;99.90;;;;;;5023145;28;20193;-86
2024/04/08 03:55:25;;;;;;;6.33;2.40;;;12.30;99.90;;;;;;5025604;28;20200;-84
2024/04/08 03:57:52;;;;;;;7.30;2.40;;;12.20;99.90;;;;;;5017695;28;20724;-83
2024/04/08 04:00:24;;;;;;;4.40;1.80;;;12.20;99.90;;;;;;5020952;28;20205;-82
2024/04/08 04:02:51;;;;;;;3.97;2.27;;;;;;;;;;5027428;28;20177;-83
2024/04/08 04:05:17;;;;;;;6.00;2.00;;;12.20;99.90;;;;;;5030934;28;20575;-82
2024/04/08 04:07:44;;;;;;;6.93;1.90;;;12.30;99.90;;;;;;5020971;28;20213;-84
2024/04/08 04:10:10;;;;;;;4.73;2.10;;;;;;;;;;5020641;28;20316;-86
2024/04/08 04:12:39;;;;;;;6.97;2.30;;;12.00;99.90;;;;;;5021433;28;20191;-85
2024/04/08 04:15:06;;;;;;;10.23;2.20;;;12.00;99.90;;;;;;5010046;28;20209;-83
2024/04/08 04:17:34;;;;;;;5.17;1.97;;;12.00;99.90;;;;;;5001795;28;20225;-83
2024/04/08 04:20:03;;;;;;;6.93;2.00;;;11.90;99.90;;;;;;5020655;28;20263;-84
2024/04/08 04:22:32;;;;;;;5.00;1.90;;;11.90;99.90;;;;;;5003490;28;20462;-83
2024/04/08 04:24:58;;;;;;;6.27;2.10;;;12.00;99.90;;;;;;5004059;28;20197;-83
2024/04/08 04:27:25;;;;;;;4.37;2.00;;;12.00;99.90;;;;;;5022319;28;20236;-82
2024/04/08 04:29:53;;;;;;;5.47;1.90;;;;;;;;;;5035336;28;20215;-81
2024/04/08 04:32:20;;;;;;;9.30;2.10;;;11.90;99.90;;;;;;5018130;28;20311;-80
2024/04/08 04:34:49;;;;;;;9.93;2.17;;;11.80;99.90;;;;;;5035265;28;20178;-83
2024/04/08 04:37:16;;;;;;;6.83;1.90;;;11.90;99.90;;;;;;5024435;28;20193;-84
2024/04/08 04:39:41;;;;;;;9.07;2.17;;;12.00;99.90;;;;;;5023178;28;20312;-81
2024/04/08 04:42:09;;;;;;;7.27;2.20;;;11.90;99.90;;;;;;5022863;28;20186;-85
2024/04/08 04:44:35;;;;;;;5.30;1.93;;;;;;;;;;5004370;28;20208;-82
2024/04/08 04:47:04;;;;;;;6.07;2.20;;;;;;;;;;5021471;28;20546;-81
2024/04/08 04:49:31;;;;;;;6.43;2.20;;;;;;;;;;5003567;28;20720;-84
2024/04/08 04:51:58;;;;;;;7.80;1.97;;;11.80;99.90;;;;;;5003801;28;20201;-84
2024/04/08 04:54:24;;;;;;;5.87;2.07;;;;;;;;;;5021655;28;20184;-85
2024/04/08 04:56:52;;;;;;;6.33;2.57;;;;;;;;;;5021812;28;20189;-83
2024/04/08 04:59:18;;;;;;;7.27;2.20;;;11.80;99.90;;;;;;5003844;28;20230;-84
2024/04/08 05:01:45;;;;;;;9.57;1.90;;;;;;;;;;5020814;28;20195;-83
2024/04/08 05:04:14;;;;;;;6.50;2.10;;;;;;;;;;5021900;28;20245;-80
2024/04/08 05:06:41;;;;;;;8.77;1.90;;;12.10;99.90;;;;;;5007556;28;20568;-84
2024/04/08 05:09:08;;;;;;;6.13;2.20;;;;;;;;;;5007151;28;20217;-84
2024/04/08 05:11:35;;;;;;;5.73;2.63;;;;;;;;;;5024949;28;20237;-82
2024/04/08 05:14:01;;;;;;;7.13;2.10;;;;;;;;;;5024904;28;20649;-82
2024/04/08 05:16:28;;;;;;;9.07;2.53;;;12.20;99.90;;;;;;5025729;28;20205;-84
2024/04/08 05:18:55;;;;;;;5.50;2.17;;;;;;;;;;5024499;28;20201;-84
2024/04/08 05:21:23;;;;;;;5.67;2.07;;;12.20;99.90;;;;;;5007506;28;20193;-84
2024/04/08 05:23:49;;;;;;;10.10;2.47;;;;;;;;;;5009813;28;20200;-84
2024/04/08 05:26:16;;;;;;;7.87;2.20;;;12.30;99.90;;;;;;5007041;28;20218;-82
2024/04/08 05:28:42;;;;;;;7.57;2.13;;;12.40;99.90;;;;;;5024314;28;20201;-82
2024/04/08 05:31:11;;;;;;;5.67;1.93;;;12.40;99.90;;;;;;5024946;28;20235;-84
2024/04/08 05:33:37;;;;;;;6.60;2.17;;;12.60;99.90;;;;;;5006566;28;20608;-86
2024/04/08 05:36:05;;;;;;;7.17;1.97;;;12.60;99.90;;;;;;5024317;28;20220;-84
2024/04/08 05:38:33;;;;;;;7.57;2.28;;;12.70;99.90;;;;;;5025017;28;20193;-83
2024/04/08 05:41:01;;;;;;;8.70;2.43;;;12.70;99.90;;;;;;5007576;28;20236;-83
2024/04/08 05:43:28;;;;;;;5.17;2.03;;;12.80;99.90;;;;;;5024769;28;20223;-83
2024/04/08 05:45:54;;;;;;;7.37;2.37;;;12.90;99.90;;;;;;5024005;28;20166;-80
2024/04/08 05:48:21;;;;;;;6.40;2.35;;;;;;;;;;5024511;28;20225;-84
2024/04/08 05:50:48;;;;;;;6.28;2.10;;;13.00;99.90;;;;;;5022760;28;20206;-82
2024/04/08 05:53:13;;;;;;;8.37;2.40;;;13.10;99.90;;;;;;5024495;28;20186;-84
2024/04/08 05:55:42;;;;;;;9.48;2.42;;;13.40;99.90;;;;;;5024693;28;20219;-85
2024/04/08 05:58:10;;;;;;;6.47;2.10;;;13.40;99.90;;;;;;5024139;28;20182;-85
2024/04/08 06:00:37;;;;;;;7.75;2.55;;;13.60;99.90;;;;;;5008969;28;20320;-84
2024/04/08 06:03:03;;;;;;;7.68;2.35;;;13.70;99.90;;;;;;5026316;28;20197;-80
2024/04/08 06:05:31;;;;;;;5.70;2.10;;;13.90;99.90;;;;;;5008978;28;20193;-81
2024/04/08 06:07:57;;;;;;;5.65;2.20;;;;;;;;;;5027506;28;20212;-83
2024/04/08 06:10:30;;;;;;;5.65;2.20;;;14.30;99.90;;;;;;5022290;28;20216;-84
2024/04/08 06:12:59;;;;;;;6.28;2.42;;;14.50;99.90;;;;;;5019409;28;20224;-84
2024/04/08 06:15:26;;;;;;;6.55;2.60;;;14.50;99.90;;;;;;5002673;28;20383;-83
2024/04/08 06:17:52;;;;;;;7.70;2.78;;;14.60;99.90;;;;;;5019367;28;20194;-83
2024/04/08 06:20:19;;;;;;;7.45;2.60;;;14.70;99.90;;;;;;5019211;28;20217;-84
2024/04/08 06:22:45;;;;;;;11.07;3.22;;;14.70;99.90;;;;;;5000899;28;20193;-83
2024/04/08 06:25:12;;;;;;;8.85;2.97;;;;;;;;;;5019255;28;20193;-84
2024/04/08 06:27:38;;;;;;;7.90;2.88;;;;;;;;;;5019228;28;20190;-83
2024/04/08 06:30:08;;;;;;;6.78;3.08;;;15.20;99.90;;;;;;5021116;28;20232;-84
2024/04/08 06:32:35;;;;;;;9.10;2.55;;;15.30;99.90;;;;;;5020200;28;20203;-84
2024/04/08 06:35:01;;;;;;;7.47;2.85;;;15.40;99.90;;;;;;5021357;28;20192;-86
2024/04/08 06:37:28;;;;;;;9.23;2.67;;;15.40;99.90;;;;;;5021525;28;20189;-85
2024/04/08 06:39:55;;;;;;;10.18;2.97;;;;;;;;;;5020469;28;20255;-81
2024/04/08 06:42:21;;;;;;;8.13;2.60;;;15.70;99.90;;;;;;5020233;28;20189;-81
2024/04/08 06:44:48;;;;;;;9.50;2.70;;;;;;;;;;5001826;28;20209;-84
2024/04/08 06:47:16;;;;;;;9.10;2.75;;;;;;;;;;5020971;28;20263;-84
2024/04/08 06:49:44;;;;;;;7.88;2.60;;;16.20;99.90;;;;;;5020425;28;20708;-83
2024/04/08 06:52:10;;;;;;;5.88;2.30;;;16.20;99.90;;;;;;5019734;28;20579;-80
2024/04/08 06:54:38;;;;;;;8.45;2.75;;;16.60;99.90;;;;;;5002069;28;20614;-83
2024/04/08 06:57:04;;;;;;;8.52;2.70;;;16.60;99.90;;;;;;5001577;28;20712;-84
2024/04/08 06:59:31;;;;;;;10.48;2.65;;;16.80;99.90;;;;;;5019156;28;20213;-82
2024/04/08 07:01:57;;;;;;;7.10;2.55;;;16.90;99.90;;;;;;5001811;28;20260;-83
2024/04/08 07:04:25;;;;;;;6.32;2.88;;;;;;;;;;5019335;28;20204;-82
2024/04/08 07:06:51;;;;;;;7.60;2.67;;;17.10;99.90;;;;;;5019975;28;20218;-83
2024/04/08 07:09:20;;;;;;;8.75;2.78;;;17.40;99.90;;;;;;5018920;28;20205;-82
2024/04/08 07:11:46;;;;;;;7.78;2.45;;;17.40;99.90;;;;;;5020012;28;20190;-85
2024/04/08 07:14:14;;;;;;;9.40;3.10;;;17.60;99.90;;;;;;5019982;28;20181;-83
2024/04/08 07:16:40;;;;;;;5.25;2.33;;;17.80;99.90;;;;;;5020545;28;20236;-82
2024/04/08 07:19:07;;;;;;;10.10;2.60;;;18.20;99.90;;;;;;5019172;28;20222;-83
2024/04/08 07:21:34;;;;;;;7.28;3.00;;;18.30;99.90;;;;;;5018854;28;20692;-83
2024/04/08 07:24:01;;;;;;;10.75;2.53;;;18.40;99.90;;;;;;5002101;28;20220;-84
2024/04/08 07:26:27;;;;;;;7.10;2.42;;;18.80;99.90;;;;;;5019386;28;20181;-85
2024/04/08 07:28:55;;;;;;;5.70;2.40;;;;;;;;;;5018478;28;20548;-81
2024/04/08 07:31:21;;;;;;;9.77;2.60;;;;;;;;;;5030034;28;20170;-83
2024/04/08 07:33:48;;;;;;;12.20;2.95;;;19.30;99.90;;;;;;5020223;28;20204;-82
2024/04/08 07:36:14;;;;;;;7.45;2.67;;;19.40;99.90;;;;;;5037391;28;20170;-82
2024/04/08 07:38:43;;;;;;;12.27;2.63;;;19.40;99.90;;;;;;5033867;28;20614;-83
2024/04/08 07:41:08;;;;;;;8.20;2.33;;;19.40;99.90;;;;;;5031340;28;20209;-82
2024/04/08 07:43:37;;;;;;;6.40;2.15;;;19.80;99.90;;;;;;5034568;28;20169;-85
2024/04/08 07:46:03;;;;;;;9.40;2.70;;;20.00;99.90;;;;;;5021768;28;20217;-84
2024/04/08 07:48:31;;;;;;;7.90;2.53;;;;;;;;;;5025976;28;20253;-83
2024/04/08 07:50:56;;;;;;;9.15;2.47;;;20.40;99.90;;;;;;5034519;28;20197;-83
2024/04/08 07:53:23;;;;;;;12.80;2.58;;;20.50;99.90;;;;;;5025247;28;20311;-84
2024/04/08 07:55:51;;;;;;;11.40;3.00;;;20.60;99.90;;;;;;5031299;28;20253;-84
2024/04/08 07:58:18;;;;;;;7.03;2.28;;;20.30;99.90;;;;;;5028689;28;20240;-82
2024/04/08 08:00:44;;;;;;;16.25;2.80;;;20.10;99.90;;;;;;5030230;28;20289;-84
2024/04/08 08:03:10;;;;;;;11.55;2.92;;;20.40;99.90;;;;;;5025082;28;20189;-84
2024/04/08 08:05:39;;;;;;;9.30;2.72;;;20.40;99.90;;;;;;5019198;28;20201;-83
2024/04/08 08:08:06;;;;;;;7.57;2.50;;;20.60;99.90;;;;;;5018455;28;20224;-85
2024/04/08 08:10:33;;;;;;;10.70;2.63;;;21.20;99.90;;;;;;5018736;28;20218;-84
2024/04/08 08:13:01;;;;;;;10.23;2.53;;;21.20;99.90;;;;;;5017365;28;20190;-86
2024/04/08 08:15:28;;;;;;;8.85;2.20;;;20.90;99.90;;;;;;5018055;28;20262;-82
2024/04/08 08:17:55;;;;;;;10.40;2.50;;;20.90;99.90;;;;;;5017117;28;20187;-81
2024/04/08 08:20:22;;;;;;;8.93;2.53;;;21.20;99.90;;;;;;5017375;28;20627;-84
2024/04/08 08:22:49;;;;;;;9.27;2.58;;;21.10;99.90;;;;;;5017978;28;20229;-83
2024/04/08 08:25:16;;;;;;;9.43;2.50;;;21.20;99.90;;;;;;4999344;28;20201;-85
2024/04/08 08:27:44;;;;;;;6.47;2.33;;;;;;;;;;5007568;28;20182;-83
2024/04/08 08:55:30;;;;;;;8.63;2.20;;;23.30;97.90;;;;;;4963616;28;20222;-86
2024/04/08 08:58:26;;;;;;;10.07;2.53;;;23.30;96.10;;;;;;4962816;28;20298;-87
2024/04/08 09:28:50;;;;;;;9.00;2.50;;;;;;;;;;4962967;28;20658;-87
2024/04/08 09:31:18;;;;;;;9.75;2.53;;;;;;;;;;4963514;28;20305;-86
2024/04/08 10:14:59;;;;;;;9.82;2.80;;;;;;;;;;5018036;28;20208;-86
2024/04/08 10:22:45;;;;;;;6.75;1.92;;;;;;;;;;5034050;23;20291;-86
2024/04/08 10:25:30;;;;;;;8.38;2.17;;;27.30;46.30;;;;;;4975326;28;20195;-86
2024/04/08 10:30:41;;;;;;;6.88;2.17;;;;;;;;;;4962498;28;20213;-83
2024/04/08 10:33:07;;;;;;;10.13;2.17;;;28.40;45.30;;;;;;4980326;28;20199;-84
2024/04/08 10:35:35;;;;;;;10.00;2.35;;;28.40;44.60;;;;;;4981908;28;20636;-85
2024/04/08 10:38:01;;;;;;;7.22;1.70;;;28.20;39.20;;;;;;4981434;28;20717;-84
2024/04/08 10:40:30;;;;;;;5.32;1.80;;;28.10;34.00;;;;;;4965039;28;20683;-83
2024/04/08 10:42:57;;;;;;;7.82;1.65;;;28.00;34.20;;;;;;4982242;28;20253;-84
2024/04/08 10:45:25;;;;;;;5.70;1.60;;;28.10;33.60;;;;;;4962697;28;20201;-83
2024/04/08 10:47:55;;;;;;;5.85;1.70;;;28.30;32.00;;;;;;4983452;28;20194;-84
2024/04/08 10:50:22;;;;;;;3.83;1.40;;;27.60;30.50;;;;;;4982037;28;20205;-84
2024/04/08 10:52:50;;;;;;;9.05;2.63;;;27.50;32.00;;;;;;4984277;28;20202;-83
2024/04/08 10:55:17;;;;;;;3.58;2.08;;;28.00;32.60;;;;;;4983662;28;20221;-84
2024/04/08 10:57:42;;;;;;;9.98;2.72;;;28.00;32.30;;;;;;4967398;28;20216;-82
2024/04/08 11:00:10;;;;;;;6.63;2.15;;;28.70;33.40;;;;;;4983607;28;20238;-84
2024/04/08 11:02:38;;;;;;;6.30;2.00;;;29.00;33.50;;;;;;4964238;28;20663;-83
2024/04/08 11:05:06;;;;;;;7.20;1.83;;;28.90;32.90;;;;;;4965009;28;20674;-84
2024/04/08 11:07:35;;;;;;;7.93;2.35;;;28.50;32.00;;;;;;4966372;28;20202;-84
2024/04/08 11:10:11;;;;;;;4.60;1.50;;;28.80;32.60;;;;;;4983639;28;20218;-83
2024/04/08 11:12:37;;;;;;;4.35;1.60;;;29.00;31.50;;;;;;4965703;28;20205;-85
2024/04/08 11:20:28;;;;;;;7.47;1.80;;;28.40;31.20;;;;;;4964334;28;20230;-83
2024/04/08 11:22:54;;;;;;;5.07;1.88;;;28.50;33.10;;;;;;4984608;28;20774;-82
2024/04/08 11:25:37;;;;;;;7.45;1.92;;;28.60;34.10;;;;;;4968991;28;20210;-85
2024/04/08 11:28:03;;;;;;;8.48;1.98;;;28.30;32.00;;;;;;4985712;28;20277;-84
2024/04/08 11:33:12;;;;;;;7.10;1.95;;;29.90;32.90;;;;;;4983082;28;20265;-83
2024/04/08 11:35:38;;;;;;;6.28;2.25;;;30.00;31.00;;;;;;5029946;22;20240;-84
2024/04/08 11:38:06;;;;;;;8.00;2.40;;;;;;;;;;5025387;28;20239;-83
2024/04/08 11:40:34;;;;;;;8.10;1.92;;;29.50;31.70;;;;;;4999232;28;20268;-84
2024/04/08 11:45:43;;;;;;;13.90;2.40;;;30.60;32.80;;;;;;5003627;28;20198;-85
2024/04/08 11:48:09;;;;;;;11.20;2.80;;;30.80;33.90;;;;;;4989809;28;20202;-85
2024/04/08 11:50:36;;;;;;;9.07;2.55;;;30.50;32.80;;;;;;5002083;28;20235;-82
2024/04/08 11:53:02;;;;;;;9.77;2.60;;;31.00;34.00;;;;;;5002087;28;20189;-83
2024/04/08 11:55:29;;;;;;;15.15;2.53;;;30.80;35.00;;;;;;5002427;28;20273;-81
2024/04/08 11:58:20;;;;;;;8.65;2.10;;;30.80;33.60;;;;;;4984352;28;20194;-83
2024/04/08 12:00:46;;;;;;;8.48;2.35;;;29.70;32.20;;;;;;5001632;28;20228;-83
2024/04/08 12:03:13;;;;;;;8.63;2.22;;;29.90;34.70;;;;;;4986645;28;20257;-84
2024/04/08 12:05:39;;;;;;;8.02;2.47;;;30.10;32.60;;;;;;5004336;28;20193;-84
2024/04/08 12:08:08;;;;;;;8.63;2.50;;;30.20;35.00;;;;;;5005693;28;20185;-84
2024/04/08 12:10:34;;;;;;;10.25;2.30;;;30.80;35.40;;;;;;5001804;28;20245;-84
2024/04/08 12:16:06;;;;;;;11.18;2.40;;;31.10;33.30;;;;;;4987531;28;20205;-83
2024/04/08 12:18:32;;;;;;;9.13;2.35;;;31.50;31.50;;;;;;4998619;28;20178;-83
2024/04/08 12:20:59;;;;;;;14.55;2.88;;;31.30;33.10;;;;;;4980504;28;20229;-84
2024/04/08 12:23:25;;;;;;;8.68;2.63;;;31.60;32.20;;;;;;4980903;28;20201;-83
2024/04/08 12:25:52;;;;;;;6.80;2.30;;;31.60;34.00;;;;;;4980924;28;20196;-84
2024/04/08 12:28:19;;;;;;;9.77;2.50;;;31.70;34.30;;;;;;4980742;28;20202;-83
2024/04/08 12:30:47;;;;;;;7.30;2.20;;;31.80;34.50;;;;;;5006219;28;20194;-83
2024/04/08 12:33:13;;;;;;;9.05;2.78;;;31.90;36.70;;;;;;5015810;28;20253;-83
2024/04/08 12:35:40;;;;;;;9.05;2.83;;;31.90;33.30;;;;;;5016886;28;20221;-82
2024/04/08 12:38:08;;;;;;;12.48;2.70;;;31.90;33.70;;;;;;5017303;28;20178;-84
2024/04/08 12:40:36;;;;;;;9.73;2.60;;;31.20;33.20;;;;;;5042616;22;20221;-83
2024/04/08 12:43:02;;;;;;;10.35;2.65;;;30.70;34.20;;;;;;5037452;28;20181;-83
2024/04/08 12:45:31;;;;;;;9.85;2.70;;;30.50;34.20;;;;;;5020321;28;20228;-84
2024/04/08 12:47:56;;;;;;;14.70;3.20;;;30.40;35.00;;;;;;5020277;28;20207;-84
2024/04/08 12:50:23;;;;;;;15.75;3.30;;;31.00;35.00;;;;;;5023365;28;20269;-85
2024/04/08 12:52:49;;;;;;;11.18;2.63;;;31.00;34.20;;;;;;5019381;28;20190;-84
2024/04/08 12:55:16;;;;;;;11.93;2.58;;;31.00;35.00;;;;;;5018973;28;20185;-84
2024/04/08 12:57:42;;;;;;;11.25;3.13;;;30.90;34.40;;;;;;5002857;28;20201;-86
2024/04/08 13:00:10;;;;;;;12.85;2.67;;;30.60;33.10;;;;;;5005604;28;20297;-84
2024/04/08 13:02:54;;;;;;;11.30;3.00;;;30.60;34.00;;;;;;5005271;28;20204;-83
2024/04/08 13:05:22;;;;;;;13.60;2.88;;;30.30;34.50;;;;;;5003078;28;20195;-84
2024/04/08 13:07:48;;;;;;;11.85;2.92;;;30.30;36.00;;;;;;5018390;28;20190;-83
2024/04/08 13:10:15;;;;;;;10.48;2.90;;;30.30;34.10;;;;;;5027197;28;20219;-83
2024/04/08 13:12:41;;;;;;;14.85;3.25;;;30.50;34.90;;;;;;5022454;28;20197;-83
2024/04/08 13:15:08;;;;;;;12.55;2.78;;;;;;;;;;5021404;28;20190;-82
2024/04/08 13:17:35;;;;;;;13.45;4.22;;;30.60;33.00;;;;;;5016521;28;20522;-85
2024/04/08 13:20:04;;;;;;;19.08;3.70;;;31.50;31.90;;;;;;5022400;28;20241;-85
2024/04/08 13:22:30;;;;;;;17.17;3.22;;;32.40;30.70;;;;;;5025787;28;20232;-84
2024/04/08 13:24:57;;;;;;;14.25;3.15;;;32.40;31.20;;;;;;5008760;28;20625;-83
2024/04/08 13:27:23;;;;;;;21.65;4.05;;;32.10;32.10;;;;;;5001784;28;20194;-84
2024/04/08 13:29:50;;;;;;;14.48;3.75;;;32.20;29.60;;;;;;5002999;28;20248;-83
2024/04/08 13:32:16;;;;;;;18.80;3.63;;;32.10;30.40;;;;;;5020092;28;20660;-83
2024/04/08 13:34:42;;;;;;;26.48;3.80;;;32.50;30.70;;;;;;5002550;28;20202;-84
2024/04/08 13:37:10;;;;;;;16.33;3.55;;;33.10;30.70;;;;;;5003174;28;20199;-84
2024/04/08 13:39:37;;;;;;;19.75;3.83;;;33.20;29.20;;;;;;5019772;28;20221;-83
2024/04/08 13:42:03;;;;;;;18.02;3.53;;;33.00;29.90;;;;;;5020438;28;20206;-84
2024/04/08 13:44:30;;;;;;;15.43;3.80;;;33.40;31.20;;;;;;5003765;28;20645;-84
2024/04/08 13:46:56;;;;;;;20.23;3.83;;;;;;;;;;5020678;28;20189;-84
2024/04/08 13:49:24;;;;;;;26.88;5.07;;;33.20;26.90;;;;;;5004469;28;20237;-83
2024/04/08 13:51:53;;;;;;;20.77;4.85;;;33.90;26.70;;;;;;5005647;28;20598;-87
2024/04/08 14:00:50;;;;;;;28.63;5.07;;;33.90;25.40;;;;;;5001291;28;20235;-87
2024/04/08 14:03:17;;;;;;;30.98;5.88;;;;;;;;;;5002198;28;20196;-88
2024/04/08 14:11:11;;;;;;;27.55;5.13;;;;;;;;;;5001431;28;20217;-85
2024/04/08 14:13:38;;;;;;;27.45;5.35;;;;;;;;;;5002826;28;20296;-85
2024/04/08 14:16:24;;;;;;;23.42;5.35;;;;;;;;;;5001849;28;20232;-88
2024/04/08 14:19:07;;;;;;;26.58;5.30;;;33.60;25.90;;;;;;5003311;28;20629;-87
2024/04/08 14:29:40;;;;;;;26.88;5.55;;;32.50;24.90;;;;;;5042369;22;20232;-76
2024/04/08 14:32:06;;;;;;;23.88;5.25;;;32.50;25.90;;;;;;5017993;28;20655;-76
2024/04/08 14:34:35;;;;;;;29.45;5.30;;;32.30;26.30;;;;;;5022761;28;20240;-76
2024/04/08 14:37:02;;;;;;;24.80;4.93;;;31.40;26.10;;;;;;4997665;28;20705;-75
2024/04/08 14:39:29;;;;;;;34.90;5.50;;;;;;;;;;4979411;28;20644;-77
2024/04/08 14:41:56;;;;;;;29.42;6.25;;;31.50;26.60;;;;;;4998280;28;20206;-76
2024/04/08 14:44:23;;;;;;;33.85;6.00;;;31.50;25.70;;;;;;4999084;28;20213;-75
2024/04/08 14:46:51;;;;;;;33.78;6.18;;;30.90;25.00;;;;;;5000865;28;20233;-75
2024/04/08 14:49:18;;;;;;;34.92;5.72;;;30.70;25.20;;;;;;4998171;28;20190;-75
2024/04/08 14:51:45;;;;;;;36.40;5.72;;;30.30;26.20;;;;;;4999702;28;20662;-74
2024/04/08 14:54:13;;;;;;;34.55;6.00;;;30.10;25.50;;;;;;4997807;28;20611;-75
2024/04/08 14:56:39;;;;;;;32.42;5.95;;;30.00;25.10;;;;;;4997274;28;20210;-75
2024/04/08 14:59:06;;;;;;;27.73;5.95;;;30.20;25.50;;;;;;4979854;28;20281;-75
2024/04/08 15:01:32;;;;;;;30.52;5.88;;;30.30;25.10;;;;;;4980188;28;20292;-75
2024/04/08 15:03:59;;;;;;;29.67;6.60;;;;;;;;;;4998741;28;20269;-78
2024/04/08 15:06:26;;;;;;;21.00;5.22;;;29.40;27.70;;;;;;5000105;28;20240;-75
2024/04/08 15:08:54;;;;;;;32.63;6.50;;;29.40;28.00;;;;;;5000683;28;20186;-75
2024/04/08 15:11:23;;;;;;;31.00;5.88;;;29.20;27.00;;;;;;5000822;28;20653;-74
2024/04/08 15:13:50;;;;;;;33.60;6.30;;;28.80;26.60;;;;;;4983434;28;20221;-75
2024/04/08 15:16:16;;;;;;;41.50;6.78;;;28.60;26.00;;;;;;4985039;28;20803;-75
2024/04/08 15:18:43;;;;;;;30.42;6.10;;;28.60;26.40;;;;;;4982560;28;20225;-76
2024/04/08 15:21:09;;;;;;;27.10;5.75;;;28.50;27.00;;;;;;4983031;28;20252;-76
2024/04/08 15:23:36;;;;;;;31.35;6.38;;;28.50;26.60;;;;;;4998683;28;20194;-76
2024/04/08 15:26:05;;;;;;;40.15;6.13;;;28.70;26.20;;;;;;4996843;28;20289;-75
2024/04/08 15:28:32;;;;;;;27.17;5.43;;;28.80;26.60;;;;;;4996225;28;20201;-75
2024/04/08 15:30:59;;;;;;;29.52;6.18;;;28.90;27.40;;;;;;5006243;28;20209;-77
2024/04/08 15:33:27;;;;;;;31.05;5.57;;;28.90;26.30;;;;;;5001036;28;20200;-76
2024/04/08 15:35:56;;;;;;;34.63;7.07;;;28.90;27.70;;;;;;5013820;28;20229;-76
2024/04/08 15:38:23;;;;;;;29.30;6.60;;;28.90;27.10;;;;;;4998365;28;20186;-76
2024/04/08 15:40:52;;;;;;;29.13;6.22;;;28.60;27.40;;;;;;4984420;28;20292;-76
2024/04/08 15:43:20;;;;;;;28.80;6.35;;;28.80;26.70;;;;;;5003481;28;20286;-76
2024/04/08 15:45:53;;;;;;;30.23;6.78;;;29.10;28.10;;;;;;4980371;28;20628;-76
2024/04/08 15:48:20;;;;;;;29.98;5.75;;;29.20;28.70;;;;;;4996871;28;20186;-76
2024/04/08 15:50:46;;;;;;;26.00;5.38;;;29.30;27.60;;;;;;4997763;28;20209;-77
2024/04/08 15:53:13;;;;;;;28.58;6.40;;;29.30;27.80;;;;;;5002202;28;20190;-77
2024/04/08 15:55:40;;;;;;;31.20;6.70;;;29.50;28.80;;;;;;4999906;28;20205;-76
2024/04/08 15:58:07;;;;;;;30.23;6.80;;;29.60;28.20;;;;;;4979666;28;20297;-77
2024/04/08 16:00:34;;;;;;;27.48;6.45;;;29.80;28.30;;;;;;4996144;28;20285;-76
2024/04/08 16:03:01;;;;;;;32.70;7.10;;;30.20;27.20;;;;;;4978567;28;20293;-76
2024/04/08 16:05:27;;;;;;;28.38;6.22;;;30.30;27.10;;;;;;4995984;28;20194;-76
2024/04/08 16:07:54;;;;;;;32.38;6.63;;;30.30;27.70;;;;;;4980550;28;20278;-77
2024/04/08 16:10:20;;;;;;;32.10;6.57;;;30.00;28.30;;;;;;4997104;28;20226;-76
2024/04/08 16:12:47;;;;;;;29.80;6.70;;;30.30;28.30;;;;;;4977534;28;20229;-76
2024/04/08 16:15:13;;;;;;;30.98;6.43;;;30.40;28.30;;;;;;4993936;28;20273;-76
2024/04/08 16:17:41;;;;;;;40.05;6.57;;;30.40;28.20;;;;;;4976830;28;20214;-76
2024/04/08 16:20:08;;;;;;;31.52;6.75;;;30.30;28.80;;;;;;4994462;28;20190;-78
2024/04/08 16:22:35;;;;;;;23.20;5.53;;;30.30;29.30;;;;;;4976686;28;20715;-76
2024/04/08 16:25:02;;;;;;;32.33;6.88;;;30.30;29.90;;;;;;4977372;28;20764;-75
2024/04/08 16:27:30;;;;;;;22.58;5.60;;;29.90;29.80;;;;;;4978172;28;20213;-76
2024/04/08 16:29:56;;;;;;;28.02;5.88;;;29.70;30.60;;;;;;4997472;28;20209;-77
2024/04/08 16:32:24;;;;;;;20.00;5.20;;;29.70;30.90;;;;;;4982097;28;20200;-78
2024/04/08 16:34:51;;;;;;;21.70;5.32;;;29.90;30.10;;;;;;4980486;28;20202;-77
2024/04/08 16:37:18;;;;;;;30.48;6.32;;;29.90;29.50;;;;;;4996912;28;20213;-77
2024/04/08 16:39:44;;;;;;;26.60;5.80;;;29.80;31.20;;;;;;4997598;28;20190;-78
2024/04/08 16:42:11;;;;;;;26.63;6.25;;;29.70;31.70;;;;;;4997988;28;20739;-78
2024/04/08 16:44:37;;;;;;;39.65;6.35;;;29.80;31.70;;;;;;4997995;28;20190;-78
2024/04/08 16:47:05;;;;;;;28.17;5.70;;;29.80;29.30;;;;;;4998484;28;20210;-77
2024/04/08 16:49:32;;;;;;;27.13;6.03;;;29.70;33.40;;;;;;4981177;28;20202;-77
2024/04/08 16:52:00;;;;;;;35.25;6.55;;;29.20;36.30;;;;;;4999277;28;20650;-78
2024/04/08 16:54:31;;;;;;;26.38;5.90;;;29.20;36.90;;;;;;4998463;28;20198;-77
2024/04/08 16:56:57;;;;;;;20.95;5.18;;;28.70;36.20;;;;;;4996899;28;20209;-78
2024/04/08 16:59:23;;;;;;;35.30;7.22;;;28.50;37.90;;;;;;4997847;28;20181;-77
2024/04/08 17:01:51;;;;;;;32.15;7.40;;;28.00;38.00;;;;;;4999716;28;20268;-78
2024/04/08 17:04:17;;;;;;;21.55;6.13;;;27.50;40.80;;;;;;5000936;28;20194;-77
2024/04/08 17:06:48;;;;;;;16.67;5.68;;;27.10;37.70;;;;;;5000316;28;20216;-77
2024/04/08 17:09:16;;;;;;;35.13;6.65;;;26.90;38.10;;;;;;5000960;28;20178;-77